TAF KLIT
KLIT 270525Z 2706/2806 VRB05KT P6SM FEW250 FM271900 22007KT P6SM SCT250 FM280100 24005KT P6SM BKN250=
METAR KLIT
KLIT 261953Z 22004KT 10SM CLR 09/M06 A3028 RMK AO2 SLP257 T00891061
KLIT 261853Z VRB03KT 10SM CLR 07/M07 A3032 RMK AO2 SLP269 T00721067
KLIT 261753Z 00000KT 10SM CLR 07/M06 A3035 RMK AO2 SLP281 T00671061 10067 21017 58025 ?
KLIT 261653Z VRB03KT 10SM CLR 05/M07 A3039 RMK AO2 SLP294 T00501067 ?
KLIT 261553Z 08003KT 10SM CLR 03/M07 A3041 RMK AO2 SLP300 T00331072
WC KLIT
WS KLIT
WV KLIT